createdAt,value
2023-02-17T00:00:40.079Z,101218.16
2023-02-17T00:03:09.533Z,101213.75
2023-02-17T00:05:41.633Z,101208.50
2023-02-17T00:08:11.234Z,101216.09
2023-02-17T00:10:43.310Z,101206.75
2023-02-17T00:13:12.748Z,101214.72
2023-02-17T00:15:42.309Z,101215.34
2023-02-17T00:18:11.844Z,101207.66
2023-02-17T00:20:41.402Z,101220.16
2023-02-17T00:23:11.033Z,101222.72
2023-02-17T00:25:45.899Z,101217.09
2023-02-17T00:28:15.345Z,101206.91
2023-02-17T00:30:44.892Z,101208.34
2023-02-17T00:33:14.397Z,101221.84
2023-02-17T00:35:44.287Z,101217.97
2023-02-17T00:38:13.791Z,101213.59
2023-02-17T00:40:46.089Z,101217.94
2023-02-17T00:43:15.800Z,101215.38
2023-02-17T00:45:45.303Z,101222.38
2023-02-17T00:48:14.836Z,101221.47
2023-02-17T00:50:44.385Z,101221.91
2023-02-17T00:53:13.848Z,101223.72
2023-02-17T00:55:45.931Z,101217.63
2023-02-17T00:58:15.423Z,101225.22
2023-02-17T01:00:45.001Z,101220.19
2023-02-17T01:03:14.464Z,101222.16
2023-02-17T01:05:44.502Z,101219.44
2023-02-17T01:08:14.152Z,101222.22
2023-02-17T01:10:47.347Z,101223.66
2023-02-17T01:13:17.283Z,101216.00
2023-02-17T01:15:49.000Z,101222.44
2023-02-17T01:18:18.552Z,101214.09
2023-02-17T01:20:48.094Z,101215.13
2023-02-17T01:23:17.670Z,101217.47
2023-02-17T01:25:50.792Z,101205.47
2023-02-17T01:28:22.377Z,101206.13
2023-02-17T01:30:52.143Z,101198.06
2023-02-17T01:33:21.581Z,101189.81
2023-02-17T01:35:51.132Z,101185.88
2023-02-17T01:38:20.653Z,101185.56
2023-02-17T01:40:52.923Z,101188.28
2023-02-17T01:43:28.754Z,101193.13
2023-02-17T01:45:59.117Z,101180.84
2023-02-17T01:48:29.652Z,101173.75
2023-02-17T01:51:02.559Z,101171.31
2023-02-17T01:53:34.421Z,101167.91
2023-02-17T01:56:06.864Z,101160.53
2023-02-17T01:58:36.614Z,101160.22
2023-02-17T02:01:06.516Z,101150.38
2023-02-17T02:03:36.506Z,101147.25
2023-02-17T02:06:07.916Z,101149.44
2023-02-17T02:08:41.498Z,101144.75
2023-02-17T02:11:13.559Z,101130.63
2023-02-17T02:13:43.002Z,101132.94
2023-02-17T02:16:15.758Z,101133.44
2023-02-17T02:18:50.285Z,101126.25
2023-02-17T02:21:52.053Z,101116.25
2023-02-17T02:24:28.009Z,101112.81
2023-02-17T02:27:32.306Z,101111.47
2023-02-17T02:30:31.799Z,101103.59
2023-02-17T02:33:06.863Z,101101.28
2023-02-17T02:35:39.823Z,101102.88
2023-02-17T02:38:12.375Z,101107.00
2023-02-17T02:40:43.874Z,101095.88
2023-02-17T02:43:15.170Z,101095.69
2023-02-17T02:45:44.783Z,101097.53
2023-02-17T02:48:16.864Z,101106.47
2023-02-17T02:51:03.862Z,101098.72
2023-02-17T02:53:58.783Z,101098.25
2023-02-17T02:56:38.833Z,101096.47
2023-02-17T02:59:13.096Z,101095.31
2023-02-17T03:01:46.754Z,101098.78
2023-02-17T03:04:21.625Z,101090.56
2023-02-17T03:06:52.035Z,101101.94
2023-02-17T03:09:23.877Z,101086.59
2023-02-17T03:11:53.389Z,101090.91
2023-02-17T03:14:23.459Z,101091.38
2023-02-17T03:16:55.748Z,101085.31
2023-02-17T03:19:27.948Z,101096.66
2023-02-17T03:21:58.981Z,101088.44
2023-02-17T03:24:28.223Z,101101.94
2023-02-17T03:26:57.717Z,101086.28
2023-02-17T03:29:27.294Z,101087.78
2023-02-17T03:31:56.835Z,101084.16
2023-02-17T03:34:28.963Z,101075.94
2023-02-17T03:37:01.131Z,101079.22
2023-02-17T03:39:31.639Z,101083.84
2023-02-17T03:42:02.248Z,101084.63
2023-02-17T03:44:31.722Z,101081.38
2023-02-17T03:47:01.194Z,101076.41
2023-02-17T03:49:33.246Z,101086.63
2023-02-17T03:52:02.725Z,101084.47
2023-02-17T03:54:34.170Z,101075.91
2023-02-17T03:57:03.867Z,101072.28
2023-02-17T03:59:33.366Z,101074.44
2023-02-17T04:02:02.804Z,101070.66
2023-02-17T04:04:36.313Z,101073.78
2023-02-17T04:07:05.832Z,101083.16
2023-02-17T04:09:35.320Z,101081.38
2023-02-17T04:12:04.788Z,101079.03
2023-02-17T04:14:34.266Z,101072.75
2023-02-17T04:17:03.687Z,101082.16
2023-02-17T04:19:35.722Z,101078.03
2023-02-17T04:22:08.900Z,101072.59
2023-02-17T04:24:38.722Z,101062.69
2023-02-17T04:27:09.018Z,101074.38
2023-02-17T04:29:38.485Z,101072.03
2023-02-17T04:32:07.972Z,101079.78
2023-02-17T04:34:40.181Z,101081.09
2023-02-17T04:37:09.634Z,101090.81
2023-02-17T04:39:39.145Z,101085.06
2023-02-17T04:42:08.762Z,101076.84
2023-02-17T04:44:38.211Z,101072.88
2023-02-17T04:47:07.754Z,101068.75
2023-02-17T04:49:39.816Z,101075.81
2023-02-17T04:52:09.249Z,101069.72
2023-02-17T04:54:39.102Z,101075.19
2023-02-17T04:57:08.565Z,101072.03
2023-02-17T04:59:38.170Z,101079.31
2023-02-17T05:02:07.653Z,101078.16
2023-02-17T05:04:39.695Z,101070.75
2023-02-17T05:07:09.248Z,101069.59
2023-02-17T05:09:38.745Z,101079.34
2023-02-17T05:12:08.361Z,101087.84
2023-02-17T05:14:38.002Z,101081.03
2023-02-17T05:17:07.431Z,101073.75
2023-02-17T05:19:37.075Z,101078.25
2023-02-17T05:22:09.096Z,101084.00
2023-02-17T05:24:38.999Z,101081.66
2023-02-17T05:27:08.515Z,101084.31
2023-02-17T05:29:38.029Z,101088.03
2023-02-17T05:32:07.523Z,101080.25
2023-02-17T05:34:37.051Z,101083.91
2023-02-17T05:37:09.102Z,101079.13
2023-02-17T05:39:38.577Z,101076.31
2023-02-17T05:42:08.184Z,101055.34
2023-02-17T05:44:37.709Z,101055.88
2023-02-17T05:47:07.323Z,101060.78
2023-02-17T05:49:36.775Z,101067.06
2023-02-17T05:52:08.829Z,101077.25
2023-02-17T05:54:38.241Z,101071.81
2023-02-17T05:57:07.701Z,101054.19
2023-02-17T05:59:37.158Z,101063.72
2023-02-17T06:02:06.716Z,101074.59
2023-02-17T06:04:36.280Z,101071.88
2023-02-17T06:07:05.780Z,101065.56
2023-02-17T06:09:37.826Z,101058.97
2023-02-17T06:12:08.032Z,101078.06
2023-02-17T06:14:37.495Z,101084.94
2023-02-17T06:17:06.960Z,101074.38
2023-02-17T06:19:36.436Z,101072.38
2023-02-17T06:22:05.902Z,101073.97
2023-02-17T06:24:37.944Z,101074.13
2023-02-17T06:27:07.403Z,101068.03
2023-02-17T06:29:36.964Z,101068.69
2023-02-17T06:32:06.587Z,101087.47
2023-02-17T06:34:36.057Z,101082.31
2023-02-17T06:37:05.520Z,101089.41
2023-02-17T06:39:37.789Z,101082.94
2023-02-17T06:42:07.337Z,101076.56
2023-02-17T06:44:36.803Z,101084.78
2023-02-17T06:47:06.354Z,101094.34
2023-02-17T06:49:35.839Z,101087.22
2023-02-17T06:52:05.277Z,101092.34
2023-02-17T06:54:34.738Z,101107.91
2023-02-17T06:57:06.760Z,101101.69
2023-02-17T06:59:36.233Z,101105.34
2023-02-17T07:02:05.822Z,101114.59
2023-02-17T07:04:35.473Z,101115.91
2023-02-17T07:07:04.894Z,101107.50
2023-02-17T07:09:34.402Z,101110.78
2023-02-17T07:12:06.821Z,101103.44
2023-02-17T07:14:36.775Z,101109.31
2023-02-17T07:17:06.253Z,101110.78
2023-02-17T07:19:35.751Z,101102.84
2023-02-17T07:22:05.260Z,101092.25
2023-02-17T07:24:35.067Z,101091.78
2023-02-17T07:27:10.616Z,101098.09
2023-02-17T07:29:40.381Z,101091.31
2023-02-17T07:32:09.911Z,101089.75
2023-02-17T07:34:40.245Z,101094.06
2023-02-17T07:37:10.414Z,101096.75
2023-02-17T07:39:39.895Z,101096.31
2023-02-17T07:42:12.751Z,101111.13
2023-02-17T07:44:42.245Z,101105.66
2023-02-17T07:47:11.682Z,101100.19
2023-02-17T07:49:41.156Z,101102.13
2023-02-17T07:52:10.657Z,101100.66
2023-02-17T07:54:40.203Z,101089.50
2023-02-17T07:57:12.238Z,101098.72
2023-02-17T07:59:41.732Z,101094.06
2023-02-17T08:02:12.903Z,101093.06
2023-02-17T08:04:42.414Z,101091.06
2023-02-17T08:07:11.865Z,101093.09
2023-02-17T08:10:05.683Z,101098.09
2023-02-17T08:13:05.261Z,101087.16
2023-02-17T08:15:35.918Z,101095.88
2023-02-17T08:18:06.496Z,101098.00
2023-02-17T08:20:36.004Z,101099.91
2023-02-17T08:23:06.467Z,101103.63
2023-02-17T08:25:36.419Z,101103.44
2023-02-17T08:28:09.252Z,101096.78
2023-02-17T08:30:39.236Z,101100.00
2023-02-17T08:33:08.867Z,101100.81
2023-02-17T08:35:38.369Z,101097.41
2023-02-17T08:38:07.850Z,101108.53
2023-02-17T08:40:37.368Z,101103.94
2023-02-17T08:43:09.891Z,101112.69
2023-02-17T08:45:39.375Z,101119.88
2023-02-17T08:48:09.030Z,101109.41
2023-02-17T08:50:38.526Z,101111.59
2023-02-17T08:53:07.974Z,101093.44
2023-02-17T08:55:48.580Z,101085.88
2023-02-17T08:58:20.966Z,101083.22
2023-02-17T09:00:50.475Z,101085.78
2023-02-17T09:03:19.938Z,101086.50
2023-02-17T09:05:50.546Z,101085.78
2023-02-17T09:08:20.667Z,101103.41
2023-02-17T09:10:50.368Z,101100.66
2023-02-17T09:13:22.616Z,101089.41
2023-02-17T09:15:54.068Z,101090.25
2023-02-17T09:18:23.857Z,101098.56
2023-02-17T09:20:53.410Z,101106.03
2023-02-17T09:23:23.146Z,101112.50
2023-02-17T09:25:52.615Z,101105.03
2023-02-17T09:28:24.715Z,101116.41
2023-02-17T09:30:54.399Z,101108.66
2023-02-17T09:33:25.751Z,101109.94
2023-02-17T09:35:56.337Z,101120.41
2023-02-17T09:38:25.941Z,101113.28
2023-02-17T09:40:55.427Z,101129.06
2023-02-17T09:43:29.490Z,101125.81
2023-02-17T09:46:00.965Z,101127.53
2023-02-17T09:48:31.544Z,101137.25
2023-02-17T09:51:02.697Z,101128.13
2023-02-17T09:53:33.510Z,101136.09
2023-02-17T09:56:05.099Z,101131.91
2023-02-17T09:58:39.328Z,101142.09
2023-02-17T10:01:12.172Z,101149.75
2023-02-17T10:03:42.973Z,101138.22
2023-02-17T10:06:15.991Z,101138.78
2023-02-17T10:08:49.652Z,101131.66
2023-02-17T10:11:23.236Z,101132.63
2023-02-17T10:13:55.569Z,101129.75
2023-02-17T10:16:26.935Z,101126.09
2023-02-17T10:18:59.484Z,101131.81
2023-02-17T10:21:30.796Z,101133.03
2023-02-17T10:24:00.424Z,101122.94
2023-02-17T10:26:45.308Z,101135.63
2023-02-17T10:29:23.915Z,101142.47
2023-02-17T10:31:57.658Z,101136.56
2023-02-17T10:34:38.280Z,101142.47
2023-02-17T10:37:09.157Z,101137.75
2023-02-17T10:39:46.802Z,101149.06
2023-02-17T10:42:19.828Z,101153.63
2023-02-17T10:44:52.117Z,101153.25
2023-02-17T10:47:21.661Z,101156.53
2023-02-17T10:49:53.105Z,101148.81
2023-02-17T10:52:24.951Z,101149.81
2023-02-17T10:54:57.672Z,101159.84
2023-02-17T10:57:27.612Z,101158.78
2023-02-17T10:59:59.746Z,101157.94
2023-02-17T11:02:38.240Z,101159.00
2023-02-17T11:05:08.851Z,101151.06
2023-02-17T11:07:39.438Z,101155.78
2023-02-17T11:10:25.661Z,101150.44
2023-02-17T11:12:56.034Z,101148.56
2023-02-17T11:15:29.986Z,101154.69
2023-02-17T11:17:59.685Z,101147.34
2023-02-17T11:20:32.373Z,101144.97
2023-02-17T11:23:11.056Z,101144.75
2023-02-17T11:25:40.624Z,101131.47
2023-02-17T11:28:14.186Z,101143.19
2023-02-17T11:30:54.656Z,101133.06
2023-02-17T11:33:26.128Z,101122.69
2023-02-17T11:35:56.024Z,101120.38
2023-02-17T11:38:27.145Z,101118.03
2023-02-17T11:40:57.611Z,101119.00
2023-02-17T11:43:28.634Z,101111.88
2023-02-17T11:46:05.761Z,101110.00
2023-02-17T11:48:55.151Z,101108.78
2023-02-17T11:51:26.162Z,101108.00
2023-02-17T11:54:01.200Z,101111.50
2023-02-17T11:56:33.504Z,101112.59
2023-02-17T11:59:11.268Z,101126.78
2023-02-17T12:01:58.999Z,101115.94
2023-02-17T12:04:29.373Z,101115.94
2023-02-17T12:07:19.169Z,101118.38
2023-02-17T12:09:59.088Z,101113.25
2023-02-17T12:12:32.828Z,101121.44
2023-02-17T12:15:06.613Z,101113.47
2023-02-17T12:17:45.876Z,101106.72
2023-02-17T12:20:29.018Z,101115.72
2023-02-17T12:23:03.804Z,101107.13
2023-02-17T12:25:34.281Z,101101.19
2023-02-17T12:28:12.028Z,101104.28
2023-02-17T12:30:50.094Z,101107.72
2023-02-17T12:33:33.882Z,101101.19
2023-02-17T12:36:05.469Z,101097.09
2023-02-17T12:38:36.260Z,101096.66
2023-02-17T12:41:08.396Z,101095.66
2023-02-17T12:43:40.783Z,101088.47
2023-02-17T12:46:16.554Z,101073.91
2023-02-17T12:48:50.153Z,101079.03
2023-02-17T12:51:21.876Z,101069.88
2023-02-17T12:53:53.223Z,101080.72
2023-02-17T12:56:44.202Z,101079.06
2023-02-17T12:59:15.751Z,101070.28
2023-02-17T13:01:57.832Z,101061.06
2023-02-17T13:04:30.139Z,101064.13
2023-02-17T13:07:06.107Z,101079.50
2023-02-17T13:09:37.238Z,101074.56
2023-02-17T13:12:17.938Z,101068.44
2023-02-17T13:14:47.977Z,101070.47
2023-02-17T13:17:28.770Z,101060.25
2023-02-17T13:20:27.357Z,101060.22
2023-02-17T13:23:10.157Z,101040.72
2023-02-17T13:25:39.770Z,101042.31
2023-02-17T13:28:36.243Z,101049.06
2023-02-17T13:31:19.946Z,101040.22
2023-02-17T13:33:51.890Z,101029.25
2023-02-17T13:36:39.574Z,101034.94
2023-02-17T13:39:29.502Z,101041.31
2023-02-17T13:42:00.521Z,101035.41
2023-02-17T13:44:32.922Z,101049.56
2023-02-17T13:47:09.204Z,101051.44
2023-02-17T13:49:38.667Z,101042.41
2023-02-17T13:52:19.719Z,101046.75
2023-02-17T13:54:56.231Z,101052.03
2023-02-17T13:57:28.725Z,101040.81
2023-02-17T14:00:11.849Z,101027.91
2023-02-17T14:02:42.075Z,101033.41
2023-02-17T14:05:18.373Z,101034.22
2023-02-17T14:07:53.331Z,101036.25
2023-02-17T14:10:25.025Z,101029.03
2023-02-17T14:12:54.638Z,101033.81
2023-02-17T14:15:25.362Z,101024.81
2023-02-17T14:17:54.955Z,101009.03
2023-02-17T14:20:32.379Z,101018.09
2023-02-17T14:23:06.569Z,101023.97
2023-02-17T14:25:37.519Z,101022.09
2023-02-17T14:28:07.350Z,101025.38
2023-02-17T14:30:38.733Z,101024.34
2023-02-17T14:33:09.017Z,101018.38
2023-02-17T14:35:39.554Z,101008.31
2023-02-17T14:38:23.014Z,101021.44
2023-02-17T14:40:57.549Z,101018.03
2023-02-17T14:43:27.389Z,101017.66
2023-02-17T14:45:56.876Z,101012.34
2023-02-17T14:48:27.926Z,101033.22
2023-02-17T14:50:58.846Z,101024.59
2023-02-17T14:53:32.757Z,101013.94
2023-02-17T14:56:03.269Z,101010.25
2023-02-17T14:58:32.876Z,101007.59
2023-02-17T15:01:02.402Z,101003.69
2023-02-17T15:03:34.808Z,101003.50
2023-02-17T15:06:12.677Z,100997.19
2023-02-17T15:08:45.425Z,100996.56
2023-02-17T15:11:19.650Z,100997.53
2023-02-17T15:13:49.298Z,100998.19
2023-02-17T15:16:19.148Z,100997.00
2023-02-17T15:18:54.017Z,101012.13
2023-02-17T15:21:28.073Z,101017.84
2023-02-17T15:24:02.586Z,101010.25
2023-02-17T15:26:32.927Z,101031.34
2023-02-17T15:29:02.432Z,101027.06
2023-02-17T15:31:32.680Z,101027.28
2023-02-17T15:34:02.809Z,101029.72
2023-02-17T15:36:32.889Z,101032.19
2023-02-17T15:39:05.076Z,101041.22
2023-02-17T15:41:34.578Z,101042.66
2023-02-17T15:44:05.813Z,101043.66
2023-02-17T15:46:36.432Z,101042.84
2023-02-17T15:49:05.964Z,101027.50
2023-02-17T15:51:35.461Z,101029.97
2023-02-17T15:54:07.685Z,101039.38
2023-02-17T15:56:43.236Z,101021.56
2023-02-17T15:59:15.257Z,101035.50
2023-02-17T16:01:45.258Z,101031.59
2023-02-17T16:04:14.924Z,101028.75
2023-02-17T16:06:44.701Z,101039.16
2023-02-17T16:09:16.907Z,101042.03
2023-02-17T16:11:49.623Z,101053.06
2023-02-17T16:14:26.046Z,101046.13
2023-02-17T16:16:55.475Z,101059.22
2023-02-17T16:19:24.994Z,101078.88
2023-02-17T16:21:54.491Z,101058.81
2023-02-17T16:24:26.567Z,101068.00
2023-02-17T16:26:56.414Z,101059.41
2023-02-17T16:29:25.908Z,101067.81
2023-02-17T16:31:55.978Z,101068.00
2023-02-17T16:34:26.279Z,101061.47
2023-02-17T16:36:56.878Z,101074.34
2023-02-17T16:39:28.936Z,101067.41
2023-02-17T16:41:58.685Z,101079.66
2023-02-17T16:44:28.141Z,101072.88
2023-02-17T16:46:59.579Z,101084.13
2023-02-17T16:49:32.642Z,101095.81
2023-02-17T16:52:02.337Z,101087.03
2023-02-17T16:54:35.691Z,101075.38
2023-02-17T16:57:05.477Z,101089.69
2023-02-17T16:59:34.950Z,101080.66
2023-02-17T17:02:04.416Z,101083.56
2023-02-17T17:04:33.940Z,101070.59
2023-02-17T17:07:03.407Z,101079.81
2023-02-17T17:09:35.444Z,101079.47
2023-02-17T17:12:04.902Z,101076.75
2023-02-17T17:14:34.391Z,101070.66
2023-02-17T17:17:04.340Z,101080.06
2023-02-17T17:19:33.793Z,101075.97
2023-02-17T17:22:03.452Z,101084.91
2023-02-17T17:24:35.476Z,101095.78
2023-02-17T17:27:04.944Z,101089.63
2023-02-17T17:29:34.402Z,101093.16
2023-02-17T17:32:04.051Z,101085.63
2023-02-17T17:34:33.513Z,101082.66
2023-02-17T17:37:02.979Z,101087.97
2023-02-17T17:39:35.026Z,101096.22
2023-02-17T17:42:04.495Z,101099.25
2023-02-17T17:44:33.982Z,101102.31
2023-02-17T17:47:03.804Z,101105.44
2023-02-17T17:49:33.602Z,101110.09
2023-02-17T17:52:03.057Z,101109.88
2023-02-17T17:54:36.195Z,101121.97
2023-02-17T17:57:05.770Z,101123.78
2023-02-17T17:59:35.219Z,101135.44
2023-02-17T18:02:04.689Z,101126.19
2023-02-17T18:04:34.163Z,101132.19
2023-02-17T18:07:03.861Z,101138.53
2023-02-17T18:09:38.915Z,101135.09
2023-02-17T18:12:11.210Z,101143.66
2023-02-17T18:14:41.869Z,101155.56
2023-02-17T18:17:11.396Z,101148.19
2023-02-17T18:19:40.923Z,101155.59
2023-02-17T18:22:10.901Z,101166.19
2023-02-17T18:24:42.932Z,101174.00
2023-02-17T18:27:12.400Z,101172.78
2023-02-17T18:29:41.847Z,101178.94
2023-02-17T18:32:11.522Z,101178.91
2023-02-17T18:34:41.046Z,101168.19
2023-02-17T18:37:10.602Z,101177.06
2023-02-17T18:39:40.048Z,101172.53
2023-02-17T18:42:12.211Z,101185.44
2023-02-17T18:44:41.693Z,101182.97
2023-02-17T18:47:11.168Z,101187.59
2023-02-17T18:49:40.635Z,101185.78
2023-02-17T18:52:10.097Z,101183.84
2023-02-17T18:54:44.224Z,101192.47
2023-02-17T18:57:16.301Z,101194.13
2023-02-17T18:59:46.045Z,101203.75
2023-02-17T19:02:15.603Z,101208.84
2023-02-17T19:04:45.042Z,101210.75
2023-02-17T19:07:14.539Z,101221.56
2023-02-17T19:09:44.916Z,101223.44
2023-02-17T19:12:16.953Z,101220.63
2023-02-17T19:14:46.480Z,101224.72
2023-02-17T19:17:18.383Z,101230.03
2023-02-17T19:19:48.054Z,101220.16
2023-02-17T19:22:17.537Z,101227.69
2023-02-17T19:24:47.099Z,101226.34
2023-02-17T19:27:19.208Z,101236.56
2023-02-17T19:29:48.865Z,101228.25
2023-02-17T19:32:18.398Z,101228.25
2023-02-17T19:34:47.884Z,101224.38
2023-02-17T19:37:17.376Z,101243.00
2023-02-17T19:39:46.854Z,101240.72
2023-02-17T19:42:18.877Z,101233.97
2023-02-17T19:44:48.452Z,101239.13
2023-02-17T19:47:17.962Z,101236.72
2023-02-17T19:49:47.414Z,101242.75
2023-02-17T19:52:17.061Z,101236.66
2023-02-17T19:54:46.870Z,101231.97
2023-02-17T19:57:20.047Z,101238.78
2023-02-17T19:59:49.479Z,101244.97
2023-02-17T20:02:19.091Z,101252.16
2023-02-17T20:04:48.612Z,101249.69
2023-02-17T20:07:18.072Z,101248.88
2023-02-17T20:09:47.594Z,101250.09
2023-02-17T20:12:21.676Z,101249.94
2023-02-17T20:14:51.177Z,101253.78
2023-02-17T20:17:20.633Z,101258.38
2023-02-17T20:19:50.113Z,101264.91
2023-02-17T20:22:19.597Z,101259.63
2023-02-17T20:24:49.060Z,101254.28
2023-02-17T20:27:21.558Z,101258.94
2023-02-17T20:29:51.171Z,101261.00
2023-02-17T20:32:20.761Z,101257.72
2023-02-17T20:34:52.594Z,101258.00
2023-02-17T20:37:22.195Z,101258.91
2023-02-17T20:39:51.679Z,101259.34
2023-02-17T20:42:23.743Z,101254.19
2023-02-17T20:44:54.518Z,101256.06
2023-02-17T20:47:24.001Z,101257.44
2023-02-17T20:49:53.486Z,101255.22
2023-02-17T20:52:22.954Z,101256.22
2023-02-17T20:54:52.470Z,101263.09
2023-02-17T20:57:24.507Z,101274.16
2023-02-17T20:59:53.985Z,101270.25
2023-02-17T21:02:23.540Z,101270.03
2023-02-17T21:04:53.391Z,101271.91
2023-02-17T21:07:22.868Z,101267.16
2023-02-17T21:09:52.342Z,101265.06
2023-02-17T21:12:24.408Z,101274.41
2023-02-17T21:14:53.919Z,101273.81
2023-02-17T21:17:23.380Z,101279.50
2023-02-17T21:19:52.830Z,101279.97
2023-02-17T21:22:22.371Z,101279.38
2023-02-17T21:24:52.051Z,101282.31
2023-02-17T21:27:24.119Z,101279.66
2023-02-17T21:29:53.576Z,101280.88
2023-02-17T21:32:23.128Z,101277.97
2023-02-17T21:34:52.630Z,101275.44
2023-02-17T21:37:22.275Z,101281.19
2023-02-17T21:39:51.781Z,101275.25
2023-02-17T21:42:48.431Z,101270.13
2023-02-17T21:45:15.620Z,101273.44
2023-02-17T21:47:45.747Z,101276.09
2023-02-17T21:50:15.429Z,101278.59
2023-02-17T21:52:44.916Z,101276.34
2023-02-17T21:55:14.380Z,101277.97
2023-02-17T21:57:46.483Z,101276.94
2023-02-17T22:00:17.817Z,101269.94
2023-02-17T22:02:47.353Z,101271.63
2023-02-17T22:05:17.170Z,101270.41
2023-02-17T22:07:46.641Z,101268.03
2023-02-17T22:10:16.657Z,101269.09
2023-02-17T22:12:48.704Z,101273.97
2023-02-17T22:15:18.815Z,101280.31
2023-02-17T22:17:48.279Z,101281.59
2023-02-17T22:20:19.305Z,101276.81
2023-02-17T22:22:48.569Z,101281.47
2023-02-17T22:25:18.123Z,101280.06
2023-02-17T22:27:50.608Z,101289.50
2023-02-17T22:30:20.488Z,101286.31
2023-02-17T22:32:49.911Z,101286.97
2023-02-17T22:35:20.987Z,101282.09
2023-02-17T22:37:50.497Z,101272.91
2023-02-17T22:40:20.445Z,101274.56
2023-02-17T22:42:52.521Z,101268.31
2023-02-17T22:45:22.015Z,101274.09
2023-02-17T22:47:51.469Z,101274.75
2023-02-17T22:50:20.969Z,101275.25
2023-02-17T22:52:50.482Z,101267.81
2023-02-17T22:55:20.085Z,101272.09
2023-02-17T22:57:52.147Z,101275.31
2023-02-17T23:00:22.013Z,101279.00
2023-02-17T23:02:54.260Z,101274.53
2023-02-17T23:05:23.703Z,101278.53
2023-02-17T23:07:54.200Z,101282.81
2023-02-17T23:10:23.669Z,101278.13
2023-02-17T23:12:55.745Z,101272.78
2023-02-17T23:15:39.294Z,101282.47
2023-02-17T23:18:09.392Z,101289.31
2023-02-17T23:20:40.236Z,101285.94
2023-02-17T23:23:09.832Z,101280.81
2023-02-17T23:25:41.199Z,101284.50
2023-02-17T23:28:13.255Z,101287.03
2023-02-17T23:30:43.509Z,101284.25
2023-02-17T23:33:13.060Z,101288.78
2023-02-17T23:35:44.845Z,101286.97
2023-02-17T23:38:14.550Z,101279.38
2023-02-17T23:40:44.024Z,101288.56
2023-02-17T23:43:16.140Z,101290.25
2023-02-17T23:45:45.572Z,101292.28
2023-02-17T23:48:15.220Z,101288.00
2023-02-17T23:50:44.706Z,101297.06
2023-02-17T23:53:15.421Z,101295.13
2023-02-17T23:55:44.895Z,101287.09
2023-02-17T23:58:17.888Z,101287.53
